Time;durP1;ratioP1;P1;durP2;ratioP2;P2;SDS_P1;SDS_P2;PMS_P1;PMS_P2;Temp;Humidity;BMP_temperature;BMP_pressure;BME280_temperature;BME280_humidity;BME280_pressure;Samples;Min_cycle;Max_cycle;Signal;HPM_P1;HPM_P2
2022/05/24 00:01:56;;;;;;;;;;;;;;;18.46;68.30;91939.31;2055641;70;20069;-70
2022/05/24 00:04:22;;;;;;;;;;;;;;;18.47;68.31;91940.03;2055630;70;20046;-70
2022/05/24 00:10:21;;;;;;;;;;;;;;;18.49;67.73;91937.22;2055653;69;20115;-70
2022/05/24 00:12:47;;;;;;;;;;;;;;;18.39;70.12;91939.88;2055634;70;20435;-70
2022/05/24 00:15:30;;;;;;;;;;;;;;;18.36;70.72;91933.41;2068661;69;20093;-70
2022/05/24 00:17:58;;;;;;;;;;;;;;;18.47;67.66;91951.44;2055596;70;20568;-70
2022/05/24 00:20:25;;;;;;;;;;;;;;;18.49;66.98;91966.44;2068280;69;20061;-70
2022/05/24 00:26:27;;;;;;;;;;;;;;;18.45;67.67;91965.63;2055929;69;20073;-70
2022/05/24 00:28:53;;;;;;;;;;;;;;;18.24;68.76;91967.38;2055661;69;20054;-70
2022/05/24 00:31:18;;;;;;;;;;;;;;;18.06;69.31;91962.00;2068683;69;20097;-69
2022/05/24 00:37:12;;;;;;;;;;;;;;;18.14;68.07;91982.09;2055606;69;20057;-71
2022/05/24 00:39:38;;;;;;;;;;;;;;;18.07;70.72;91974.13;2055750;70;20046;-71
2022/05/24 00:42:07;;;;;;;;;;;;;;;18.23;66.87;91963.78;2055599;69;20111;-71
2022/05/24 00:48:07;;;;;;;;;;;;;;;17.88;69.91;91953.06;2055535;69;20137;-70
2022/05/24 00:50:36;;;;;;;;;;;;;;;16.83;76.48;91949.13;2055667;70;20058;-69
2022/05/24 00:53:06;;;;;;;;;;;;;;;17.23;75.79;91940.88;2055394;69;20058;-69
2022/05/24 00:55:35;;;;;;;;;;;;;;;17.61;73.72;91938.22;2065708;69;20051;-70
2022/05/24 00:58:07;;;;;;;;;;;;;;;17.82;72.82;91928.00;2055528;70;20069;-70
2022/05/24 01:00:33;;;;;;;;;;;;;;;17.86;73.30;91933.78;2055543;70;20051;-70
2022/05/24 01:02:58;;;;;;;;;;;;;;;17.84;73.57;91933.03;2055651;70;20042;-70
2022/05/24 01:05:26;;;;;;;;;;;;;;;17.98;72.28;91933.34;2055728;70;20141;-71
2022/05/24 01:11:21;;;;;;;;;;;;;;;18.15;69.56;91943.69;2055753;69;20516;-69
2022/05/24 01:13:47;;;;;;;;;;;;;;;18.07;71.51;91949.22;2055376;70;20054;-70
2022/05/24 01:16:13;;;;;;;;;;;;;;;18.17;69.73;91949.41;2055472;69;20119;-70
2022/05/24 01:18:42;;;;;;;;;;;;;;;18.07;66.70;91940.66;2055418;70;20141;-70
2022/05/24 01:21:11;;;;;;;;;;;;;;;18.12;70.03;91919.41;2055681;70;20138;-70
2022/05/24 01:23:40;;;;;;;;;;;;;;;17.85;70.16;91908.88;2055559;70;20053;-70
2022/05/24 01:26:08;;;;;;;;;;;;;;;17.83;69.92;91912.41;2055422;70;20554;-70
2022/05/24 01:28:40;;;;;;;;;;;;;;;17.81;70.62;91908.78;2055575;70;20089;-70
2022/05/24 01:31:08;;;;;;;;;;;;;;;17.11;76.04;91906.47;2068550;69;20050;-70
2022/05/24 01:36:19;;;;;;;;;;;;;;;17.88;70.28;91896.84;2055606;70;20057;-73
2022/05/24 01:38:49;;;;;;;;;;;;;;;17.86;71.67;91891.09;2055632;69;20090;-71
2022/05/24 01:41:23;;;;;;;;;;;;;;;17.88;71.65;91896.84;2068642;69;20078;-71
2022/05/24 01:43:50;;;;;;;;;;;;;;;17.93;71.38;91898.38;2055512;69;20094;-71
2022/05/24 01:46:18;;;;;;;;;;;;;;;17.96;69.69;91890.59;2055503;69;20139;-72
2022/05/24 01:48:54;;;;;;;;;;;;;;;17.17;74.25;91889.53;2068369;69;20149;-70
2022/05/24 01:51:23;;;;;;;;;;;;;;;17.67;72.03;91904.19;2055618;70;20101;-70
2022/05/24 01:53:50;;;;;;;;;;;;;;;17.51;72.46;91909.53;2055870;69;20058;-72
2022/05/24 01:56:18;;;;;;;;;;;;;;;17.29;73.84;91904.06;2068670;69;20046;-71
2022/05/24 01:58:48;;;;;;;;;;;;;;;17.47;71.19;91898.78;2055621;70;20134;-70
2022/05/24 02:01:34;;;;;;;;;;;;;;;17.02;76.66;91900.56;2055749;70;20057;-69
2022/05/24 02:04:00;;;;;;;;;;;;;;;17.55;71.69;91892.56;2055574;70;20561;-70
2022/05/24 02:06:26;;;;;;;;;;;;;;;17.65;72.51;91895.63;2055584;70;20054;-69
2022/05/24 02:08:52;;;;;;;;;;;;;;;17.79;67.84;91892.38;2055573;70;20119;-72
2022/05/24 02:11:23;;;;;;;;;;;;;;;17.71;69.40;91895.03;2055626;69;20050;-72
2022/05/24 02:13:50;;;;;;;;;;;;;;;17.67;69.65;91897.78;2055612;70;20501;-70
2022/05/24 02:16:17;;;;;;;;;;;;;;;17.93;69.07;91891.97;2055594;69;20069;-70
2022/05/24 02:18:45;;;;;;;;;;;;;;;17.80;72.44;91890.97;2055503;70;20050;-70
2022/05/24 02:21:10;;;;;;;;;;;;;;;17.74;72.65;91900.13;2055556;70;20091;-71
2022/05/24 02:23:43;;;;;;;;;;;;;;;17.53;73.71;91892.50;2055332;69;20482;-71
2022/05/24 02:26:09;;;;;;;;;;;;;;;17.82;70.48;91879.63;2055476;69;20145;-71
2022/05/24 02:28:36;;;;;;;;;;;;;;;17.85;68.96;91878.28;2055561;70;20140;-72
2022/05/24 02:31:03;;;;;;;;;;;;;;;17.90;71.34;91874.09;2055592;70;20058;-72
2022/05/24 02:33:29;;;;;;;;;;;;;;;17.99;71.10;91870.00;2055434;70;20161;-71
2022/05/24 02:35:54;;;;;;;;;;;;;;;17.93;72.12;91869.19;2055560;69;20090;-72
2022/05/24 02:38:20;;;;;;;;;;;;;;;17.83;73.44;91864.00;2055547;70;20062;-72
2022/05/24 02:43:30;;;;;;;;;;;;;;;17.79;73.71;91866.75;2055658;70;20106;-71
2022/05/24 02:45:56;;;;;;;;;;;;;;;17.81;72.37;91866.78;2055510;70;20097;-71
2022/05/24 02:48:21;;;;;;;;;;;;;;;17.83;73.49;91858.31;2055509;70;20173;-72
2022/05/24 02:50:46;;;;;;;;;;;;;;;17.87;72.73;91854.81;2055500;70;20054;-73
2022/05/24 02:53:12;;;;;;;;;;;;;;;17.82;73.02;91859.69;2055631;70;20058;-73
2022/05/24 02:55:37;;;;;;;;;;;;;;;17.87;72.26;91858.41;2055535;70;20153;-71
2022/05/24 02:58:03;;;;;;;;;;;;;;;17.80;72.00;91856.81;2068254;69;20042;-71
2022/05/24 03:00:28;;;;;;;;;;;;;;;17.95;70.77;91858.53;2055169;70;20054;-70
2022/05/24 03:02:55;;;;;;;;;;;;;;;17.77;73.67;91855.31;2055432;70;20046;-74
2022/05/24 03:05:21;;;;;;;;;;;;;;;17.84;72.34;91856.91;2055471;70;20122;-72
2022/05/24 03:10:31;;;;;;;;;;;;;;;17.88;72.93;91864.81;2055628;70;20054;-73
2022/05/24 03:15:42;;;;;;;;;;;;;;;17.88;71.88;91857.00;2055416;70;20061;-73
2022/05/24 03:18:09;;;;;;;;;;;;;;;17.79;73.73;91861.06;2055397;70;20046;-72
2022/05/24 03:20:35;;;;;;;;;;;;;;;17.84;71.86;91851.22;2055434;70;20509;-73
2022/05/24 03:23:02;;;;;;;;;;;;;;;17.88;72.49;91842.03;2055445;70;20459;-71
2022/05/24 03:25:28;;;;;;;;;;;;;;;17.87;73.77;91840.56;2055463;69;20090;-70
2022/05/24 03:27:54;;;;;;;;;;;;;;;17.88;72.96;91842.75;2055579;70;20046;-71
2022/05/24 03:30:19;;;;;;;;;;;;;;;17.90;73.55;91837.09;2055466;70;20119;-73
2022/05/24 03:32:44;;;;;;;;;;;;;;;17.85;73.97;91835.56;2055428;70;20050;-72
2022/05/24 03:35:11;;;;;;;;;;;;;;;17.71;75.27;91838.81;2055392;70;20407;-73
2022/05/24 03:37:37;;;;;;;;;;;;;;;17.75;74.31;91838.22;2068485;69;20057;-73
2022/05/24 03:40:03;;;;;;;;;;;;;;;17.84;73.17;91828.44;2068116;69;20047;-73
2022/05/24 03:42:29;;;;;;;;;;;;;;;17.82;73.13;91825.53;2055381;69;20506;-73
2022/05/24 03:44:55;;;;;;;;;;;;;;;17.80;72.58;91836.16;2055550;70;20066;-73
2022/05/24 03:47:20;;;;;;;;;;;;;;;17.76;72.23;91831.84;2055543;70;20085;-73
2022/05/24 03:53:15;;;;;;;;;;;;;;;17.86;71.98;91831.31;2055475;69;20045;-72
2022/05/24 03:55:41;;;;;;;;;;;;;;;17.93;71.27;91840.72;2055203;69;20058;-72
2022/05/24 03:58:06;;;;;;;;;;;;;;;17.88;70.41;91839.91;2055367;70;20061;-71
2022/05/24 04:00:34;;;;;;;;;;;;;;;17.79;73.29;91844.00;2055393;70;20136;-72
2022/05/24 04:03:00;;;;;;;;;;;;;;;17.77;72.58;91838.97;2055418;69;20115;-73
2022/05/24 04:05:25;;;;;;;;;;;;;;;17.86;72.45;91850.53;2055331;70;20058;-72
2022/05/24 04:07:52;;;;;;;;;;;;;;;17.86;73.30;91847.69;2055501;69;20053;-73
2022/05/24 04:10:19;;;;;;;;;;;;;;;17.72;74.70;91860.19;2055401;69;20558;-73
2022/05/24 04:12:44;;;;;;;;;;;;;;;17.78;72.47;91848.97;2055619;70;20147;-71
2022/05/24 04:15:10;;;;;;;;;;;;;;;17.90;71.99;91853.44;2055628;70;20132;-72
2022/05/24 04:17:36;;;;;;;;;;;;;;;17.89;72.56;91852.00;2055796;70;20124;-73
2022/05/24 04:20:01;;;;;;;;;;;;;;;17.84;73.05;91851.22;2055856;70;20109;-72
2022/05/24 04:22:27;;;;;;;;;;;;;;;17.87;73.42;91846.25;2055844;69;20534;-71
2022/05/24 04:24:52;;;;;;;;;;;;;;;17.67;71.63;91852.25;2055830;70;20057;-72
2022/05/24 04:27:17;;;;;;;;;;;;;;;17.88;71.64;91847.72;2055528;70;20061;-70
2022/05/24 04:29:43;;;;;;;;;;;;;;;18.01;71.29;91855.84;2055908;70;20046;-69
2022/05/24 04:32:09;;;;;;;;;;;;;;;18.07;71.00;91848.81;2055774;70;20165;-70
2022/05/24 04:34:34;;;;;;;;;;;;;;;18.12;69.36;91853.19;2055770;70;20053;-71
2022/05/24 04:37:00;;;;;;;;;;;;;;;18.07;70.29;91852.38;2055837;70;20165;-71
2022/05/24 04:39:25;;;;;;;;;;;;;;;17.77;73.22;91856.03;2055978;70;20086;-71
2022/05/24 04:44:35;;;;;;;;;;;;;;;17.38;73.18;91845.94;2056061;70;20118;-70
2022/05/24 04:47:10;;;;;;;;;;;;;;;17.51;72.98;91841.25;2055944;70;20173;-69
2022/05/24 04:49:42;;;;;;;;;;;;;;;16.86;76.78;91848.28;2055890;70;20141;-70
2022/05/24 04:52:11;;;;;;;;;;;;;;;17.54;72.45;91845.56;2055812;69;20078;-71
2022/05/24 04:54:37;;;;;;;;;;;;;;;17.74;72.48;91848.16;2055612;70;20061;-69
2022/05/24 04:57:05;;;;;;;;;;;;;;;17.73;73.91;91852.34;2055652;69;20092;-70
2022/05/24 05:02:58;;;;;;;;;;;;;;;17.82;71.82;91841.91;2055763;69;20046;-71
2022/05/24 05:05:24;;;;;;;;;;;;;;;17.77;72.45;91838.97;2055744;69;20050;-70
2022/05/24 05:07:52;;;;;;;;;;;;;;;17.84;68.53;91834.13;2055674;70;20147;-70
2022/05/24 05:10:17;;;;;;;;;;;;;;;18.16;69.24;91839.03;2055691;70;20211;-72
2022/05/24 05:12:45;;;;;;;;;;;;;;;17.86;73.11;91845.53;2055663;70;20046;-70
2022/05/24 05:15:11;;;;;;;;;;;;;;;17.90;70.65;91850.59;2055606;69;20419;-70
2022/05/24 05:17:36;;;;;;;;;;;;;;;17.60;72.56;91845.72;2055663;69;20471;-72
2022/05/24 05:20:03;;;;;;;;;;;;;;;17.88;71.39;91845.59;2055483;70;20418;-71
2022/05/24 05:22:28;;;;;;;;;;;;;;;18.09;69.51;91840.28;2055480;69;20152;-72
2022/05/24 05:24:53;;;;;;;;;;;;;;;18.04;70.29;91840.22;2055288;70;20082;-71
2022/05/24 05:27:19;;;;;;;;;;;;;;;18.37;65.14;91842.94;2068792;69;20070;-71
2022/05/24 05:32:32;;;;;;;;;;;;;;;18.28;71.41;91842.09;2066905;69;20097;-70
2022/05/24 05:34:58;;;;;;;;;;;;;;;18.36;70.23;91842.22;2055876;70;20043;-70
2022/05/24 05:37:26;;;;;;;;;;;;;;;18.24;71.14;91844.88;2055885;70;20050;-69
2022/05/24 05:39:51;;;;;;;;;;;;;;;18.50;70.55;91844.63;2056181;70;20057;-70
2022/05/24 05:42:17;;;;;;;;;;;;;;;18.73;69.21;91848.59;2056209;70;20051;-70
2022/05/24 05:44:42;;;;;;;;;;;;;;;18.85;68.17;91850.97;2056361;70;20054;-70
2022/05/24 05:47:08;;;;;;;;;;;;;;;18.87;68.23;91859.53;2056225;70;20057;-71
2022/05/24 05:49:33;;;;;;;;;;;;;;;18.77;68.78;91857.22;2056142;70;20090;-71
2022/05/24 05:51:59;;;;;;;;;;;;;;;18.69;70.32;91862.78;2055988;70;20153;-72
2022/05/24 05:54:25;;;;;;;;;;;;;;;18.52;70.76;91865.34;2055898;70;20062;-72
2022/05/24 05:56:50;;;;;;;;;;;;;;;18.71;70.42;91874.97;2055695;70;20429;-71
2022/05/24 05:59:16;;;;;;;;;;;;;;;18.80;65.39;91875.81;2055710;70;20046;-70
2022/05/24 06:01:42;;;;;;;;;;;;;;;18.48;66.95;91885.22;2055764;70;20054;-71
2022/05/24 06:04:08;;;;;;;;;;;;;;;18.59;69.71;91879.69;2055601;69;20505;-72
2022/05/24 06:06:37;;;;;;;;;;;;;;;18.70;68.42;91882.06;2055758;69;20080;-71
2022/05/24 06:09:02;;;;;;;;;;;;;;;18.72;68.13;91882.09;2055605;70;20414;-72
2022/05/24 06:11:28;;;;;;;;;;;;;;;18.52;70.01;91879.59;2055611;70;20058;-72
2022/05/24 06:13:53;;;;;;;;;;;;;;;18.56;67.90;91878.22;2055636;70;20048;-70
2022/05/24 06:16:20;;;;;;;;;;;;;;;18.86;68.20;91875.19;2055573;70;20138;-70
2022/05/24 06:18:46;;;;;;;;;;;;;;;18.87;69.05;91874.50;2055512;70;20145;-70
2022/05/24 06:21:11;;;;;;;;;;;;;;;18.91;66.98;91874.56;2055716;70;20421;-70
2022/05/24 06:23:37;;;;;;;;;;;;;;;19.04;67.61;91872.66;2055559;69;20474;-71
2022/05/24 06:26:02;;;;;;;;;;;;;;;19.12;67.75;91869.94;2055219;70;20467;-71
2022/05/24 06:28:28;;;;;;;;;;;;;;;19.03;70.30;91866.22;2055536;70;20134;-72
2022/05/24 06:30:54;;;;;;;;;;;;;;;19.11;69.38;91867.78;2055582;69;20054;-71
2022/05/24 06:33:20;;;;;;;;;;;;;;;19.19;68.40;91865.75;2055447;70;20070;-71
2022/05/24 06:35:46;;;;;;;;;;;;;;;19.30;69.02;91873.06;2055482;70;20058;-71
2022/05/24 06:38:11;;;;;;;;;;;;;;;18.93;69.81;91877.47;2055492;70;20054;-70
2022/05/24 06:40:37;;;;;;;;;;;;;;;19.11;68.75;91870.63;2055920;69;20466;-72
2022/05/24 06:43:02;;;;;;;;;;;;;;;19.21;68.56;91865.09;2055564;69;20493;-71
2022/05/24 06:48:56;;;;;;;;;;;;;;;19.35;67.17;91859.59;2055536;69;20081;-72
2022/05/24 06:51:23;;;;;;;;;;;;;;;19.59;65.90;91872.78;2055594;70;20107;-71
2022/05/24 06:53:49;;;;;;;;;;;;;;;19.28;69.12;91878.03;2055539;69;20140;-73
2022/05/24 06:56:14;;;;;;;;;;;;;;;19.77;65.97;91885.19;2068500;69;20090;-73
2022/05/24 06:58:43;;;;;;;;;;;;;;;20.02;63.97;91876.94;2055631;70;20057;-70
2022/05/24 07:03:54;;;;;;;;;;;;;;;20.19;62.60;91872.88;2055414;70;20134;-70
2022/05/24 07:06:24;;;;;;;;;;;;;;;19.67;65.49;91876.50;2055534;70;20082;-69
2022/05/24 07:08:52;;;;;;;;;;;;;;;19.54;66.17;91883.41;2055568;70;20117;-70
2022/05/24 07:11:19;;;;;;;;;;;;;;;19.68;65.67;91886.50;2055451;70;20050;-70
2022/05/24 07:13:44;;;;;;;;;;;;;;;19.92;64.79;91893.97;2055476;70;20050;-70
2022/05/24 07:16:10;;;;;;;;;;;;;;;19.96;64.68;91894.72;2068529;69;20478;-71
2022/05/24 07:18:37;;;;;;;;;;;;;;;19.79;63.93;91885.25;2055387;69;20050;-73
2022/05/24 07:21:04;;;;;;;;;;;;;;;20.19;62.75;91889.31;2055425;70;20054;-73
2022/05/24 07:23:31;;;;;;;;;;;;;;;20.34;63.33;91890.19;2055479;69;20057;-73
2022/05/24 07:26:07;;;;;;;;;;;;;;;20.28;64.28;91890.84;2055445;69;20085;-71
2022/05/24 07:28:34;;;;;;;;;;;;;;;20.59;62.33;91891.22;2055403;70;20522;-70
2022/05/24 07:31:00;;;;;;;;;;;;;;;20.59;62.20;91889.09;2055421;70;20053;-71
2022/05/24 07:33:26;;;;;;;;;;;;;;;20.31;62.86;91893.03;2068239;69;20054;-71
2022/05/24 07:35:52;;;;;;;;;;;;;;;20.39;63.40;91888.81;2055360;69;20117;-73
2022/05/24 07:47:34;;;;;;;;;;;;;;;20.41;61.85;91886.00;2064175;69;20440;-71
2022/05/24 07:50:00;;;;;;;;;;;;;;;20.67;61.59;91880.59;2064461;69;20527;-73
2022/05/24 07:52:26;;;;;;;;;;;;;;;21.00;60.13;91887.34;2060546;69;20050;-74
2022/05/24 07:54:51;;;;;;;;;;;;;;;20.00;64.02;91888.34;2055916;70;20043;-73
2022/05/24 07:57:17;;;;;;;;;;;;;;;20.47;63.07;91883.94;2056049;70;20050;-72
2022/05/24 07:59:43;;;;;;;;;;;;;;;21.16;61.85;91883.91;2055944;70;20087;-74
2022/05/24 08:02:09;;;;;;;;;;;;;;;20.65;62.57;91882.72;2068965;69;20054;-73
2022/05/24 08:04:34;;;;;;;;;;;;;;;20.48;62.77;91885.41;2055929;70;20417;-73
2022/05/24 08:07:00;;;;;;;;;;;;;;;20.90;61.64;91878.69;2056052;70;20165;-73
2022/05/24 08:09:26;;;;;;;;;;;;;;;20.27;64.19;91884.41;2055947;69;20090;-72
2022/05/24 08:11:51;;;;;;;;;;;;;;;20.90;61.61;91886.53;2055908;70;20107;-72
2022/05/24 08:14:17;;;;;;;;;;;;;;;21.12;60.71;91891.72;2055905;70;20475;-73
2022/05/24 08:16:44;;;;;;;;;;;;;;;20.61;61.37;91877.66;2055903;70;20046;-71
2022/05/24 08:19:09;;;;;;;;;;;;;;;21.43;59.28;91884.16;2055881;69;20119;-69
2022/05/24 08:21:35;;;;;;;;;;;;;;;21.74;58.30;91888.66;2055873;70;20058;-72
2022/05/24 08:24:00;;;;;;;;;;;;;;;21.98;57.75;91888.09;2068941;69;20442;-70
2022/05/24 08:26:26;;;;;;;;;;;;;;;22.20;57.10;91889.66;2055910;69;20046;-71
2022/05/24 08:28:51;;;;;;;;;;;;;;;22.05;57.81;91880.97;2055984;70;20141;-70
2022/05/24 08:31:17;;;;;;;;;;;;;;;22.14;56.68;91878.19;2055871;70;20062;-73
2022/05/24 08:33:44;;;;;;;;;;;;;;;22.29;56.96;91883.25;2055748;70;20133;-74
2022/05/24 08:36:09;;;;;;;;;;;;;;;22.31;57.44;91880.41;2055825;70;20503;-71
2022/05/24 08:38:35;;;;;;;;;;;;;;;22.56;56.64;91881.22;2055845;70;20054;-72
2022/05/24 08:50:14;;;;;;;;;;;;;;;22.07;57.66;91874.53;2055867;70;20050;-75
2022/05/24 08:52:43;;;;;;;;;;;;;;;22.57;57.81;91876.91;2068871;69;20111;-74
2022/05/24 08:55:10;;;;;;;;;;;;;;;21.93;58.25;91868.72;2068853;69;20383;-74
2022/05/24 08:57:42;;;;;;;;;;;;;;;21.80;58.56;91867.94;2068799;69;20070;-75
2022/05/24 09:00:13;;;;;;;;;;;;;;;21.61;59.51;91869.25;2055840;69;20100;-73
2022/05/24 09:02:42;;;;;;;;;;;;;;;21.06;60.54;91869.50;2068816;69;20084;-75
2022/05/24 09:05:13;;;;;;;;;;;;;;;21.72;59.28;91868.63;2055677;70;20061;-73
2022/05/24 09:07:52;;;;;;;;;;;;;;;22.17;58.36;91865.28;2055984;70;20112;-75
2022/05/24 09:10:29;;;;;;;;;;;;;;;22.16;58.28;91869.59;2055949;70;20438;-74
2022/05/24 09:13:14;;;;;;;;;;;;;;;22.12;58.46;91873.16;2055781;69;20077;-73
2022/05/24 09:15:53;;;;;;;;;;;;;;;21.76;59.34;91873.63;2055732;69;20054;-75
2022/05/24 09:18:25;;;;;;;;;;;;;;;22.10;58.74;91878.13;2055656;70;20044;-76
2022/05/24 09:20:51;;;;;;;;;;;;;;;22.49;57.38;91882.63;2055799;70;20073;-74
2022/05/24 09:23:22;;;;;;;;;;;;;;;22.07;58.99;91889.56;2055774;69;20058;-74
2022/05/24 09:25:51;;;;;;;;;;;;;;;22.21;58.98;91888.94;2068782;69;20046;-74
2022/05/24 09:28:17;;;;;;;;;;;;;;;22.23;57.98;91874.66;2068765;69;20054;-70
2022/05/24 09:30:42;;;;;;;;;;;;;;;22.39;57.83;91876.13;2068785;69;20054;-72
2022/05/24 09:33:25;;;;;;;;;;;;;;;22.51;57.25;91876.91;2068598;69;20078;-71
2022/05/24 09:35:54;;;;;;;;;;;;;;;22.89;56.18;91871.97;2055733;70;20058;-72
2022/05/24 09:38:22;;;;;;;;;;;;;;;23.56;54.38;91869.91;2055716;70;20057;-72
2022/05/24 09:40:52;;;;;;;;;;;;;;;23.29;54.60;91866.31;2068777;69;20141;-70
2022/05/24 09:43:29;;;;;;;;;;;;;;;22.97;54.79;91867.00;2055706;70;20070;-70
2022/05/24 09:46:00;;;;;;;;;;;;;;;22.73;54.93;91867.66;2055675;69;20054;-71
2022/05/24 09:48:28;;;;;;;;;;;;;;;22.91;54.75;91861.25;2055550;69;20077;-70
2022/05/24 09:50:54;;;;;;;;;;;;;;;22.46;55.20;91854.66;2055863;69;20058;-70
2022/05/24 09:53:22;;;;;;;;;;;;;;;23.57;53.55;91856.97;2055716;70;20050;-71
2022/05/24 09:55:52;;;;;;;;;;;;;;;22.73;54.66;91853.31;2055616;70;20057;-73
2022/05/24 09:58:21;;;;;;;;;;;;;;;21.78;56.86;91853.59;2055825;70;20058;-74
2022/05/24 10:00:47;;;;;;;;;;;;;;;22.01;56.04;91863.03;2055692;70;20107;-73
2022/05/24 10:03:13;;;;;;;;;;;;;;;21.62;56.38;91862.09;2055604;69;20074;-72
2022/05/24 10:05:39;;;;;;;;;;;;;;;21.79;56.74;91855.03;2055756;70;20572;-74
2022/05/24 10:08:11;;;;;;;;;;;;;;;21.51;56.27;91862.03;2068715;69;20050;-74
2022/05/24 10:14:17;;;;;;;;;;;;;;;21.94;54.82;91865.13;2055637;69;20426;-72
2022/05/24 10:16:43;;;;;;;;;;;;;;;22.35;54.93;91867.50;2055673;69;20081;-73
2022/05/24 10:19:14;;;;;;;;;;;;;;;22.24;56.69;91872.50;2055614;70;20398;-74
2022/05/24 10:21:44;;;;;;;;;;;;;;;21.68;55.84;91870.75;2055600;69;20046;-73
2022/05/24 10:24:09;;;;;;;;;;;;;;;22.06;56.66;91879.53;2055709;70;20490;-75
2022/05/24 10:26:56;;;;;;;;;;;;;;;21.95;59.28;91885.94;2055651;70;20082;-74
2022/05/24 10:29:40;;;;;;;;;;;;;;;22.37;56.32;91885.44;2056683;69;20474;-73
2022/05/24 10:38:17;;;;;;;;;;;;;;;22.40;56.75;91881.16;2055542;70;20533;-72
2022/05/24 10:40:34;;;;;;;;;;;;;;;21.69;53.38;91880.75;2055831;70;20042;-75
2022/05/24 10:43:05;;;;;;;;;;;;;;;21.11;54.75;91870.97;2055543;70;20062;-73
2022/05/24 10:45:51;;;;;;;;;;;;;;;21.65;57.06;91880.72;2055538;70;20494;-70
2022/05/24 10:48:37;;;;;;;;;;;;;;;21.29;53.45;91882.59;2055509;70;20053;-75
2022/05/24 10:51:12;;;;;;;;;;;;;;;20.51;53.65;91883.28;2055847;69;20065;-70
2022/05/24 10:53:54;;;;;;;;;;;;;;;20.37;54.24;91885.94;2055613;70;20042;-72
2022/05/24 10:56:19;;;;;;;;;;;;;;;21.02;53.69;91887.34;2055602;69;20124;-70
2022/05/24 10:58:47;;;;;;;;;;;;;;;21.19;54.14;91896.09;2055551;70;20142;-72
2022/05/24 11:01:15;;;;;;;;;;;;;;;21.12;56.22;91898.19;2055522;70;20142;-71
2022/05/24 11:03:49;;;;;;;;;;;;;;;20.86;56.20;91892.94;2055031;70;20071;-73
2022/05/24 11:06:24;;;;;;;;;;;;;;;21.20;53.54;91898.25;2054673;70;20058;-69
2022/05/24 11:08:54;;;;;;;;;;;;;;;21.28;53.09;91892.59;2055045;70;20150;-70
2022/05/24 11:11:30;;;;;;;;;;;;;;;21.23;52.58;91901.88;2055385;70;20433;-73
2022/05/24 11:14:15;;;;;;;;;;;;;;;21.37;52.67;91912.75;2055396;70;20628;-71
2022/05/24 11:20:10;;;;;;;;;;;;;;;21.00;54.47;91910.25;2055371;69;20092;-68
2022/05/24 11:22:35;;;;;;;;;;;;;;;20.79;55.35;91900.72;2055758;69;20058;-68
2022/05/24 11:25:20;;;;;;;;;;;;;;;21.12;54.21;91894.59;2068966;69;20162;-70
2022/05/24 11:27:50;;;;;;;;;;;;;;;20.93;53.92;91905.88;2055864;70;20053;-68
2022/05/24 11:30:31;;;;;;;;;;;;;;;20.10;55.19;91908.47;2055877;70;20046;-69
2022/05/24 11:33:03;;;;;;;;;;;;;;;20.77;56.38;91920.00;2068837;69;20058;-68
2022/05/24 11:35:39;;;;;;;;;;;;;;;20.62;56.65;91942.03;2068796;69;20139;-68
2022/05/24 11:38:20;;;;;;;;;;;;;;;20.13;55.84;91966.38;2055879;70;20114;-68
2022/05/24 11:40:54;;;;;;;;;;;;;;;20.17;54.08;91980.72;2055801;70;20136;-69
2022/05/24 11:43:35;;;;;;;;;;;;;;;20.31;53.32;91972.34;2055781;70;20149;-68
2022/05/24 11:46:05;;;;;;;;;;;;;;;20.10;52.28;91959.91;2055793;70;20165;-68
2022/05/24 11:48:42;;;;;;;;;;;;;;;19.43;54.15;91958.88;2055858;69;20116;-70
2022/05/24 11:51:27;;;;;;;;;;;;;;;19.89;53.03;91958.91;2055870;70;20090;-69
2022/05/24 11:53:53;;;;;;;;;;;;;;;19.99;54.21;91961.91;2060235;69;20488;-69
2022/05/24 11:56:19;;;;;;;;;;;;;;;20.36;55.37;91967.41;2055882;70;20050;-69
2022/05/24 11:58:49;;;;;;;;;;;;;;;20.20;57.43;91959.31;2055642;69;20155;-70
2022/05/24 12:01:14;;;;;;;;;;;;;;;19.16;55.96;91958.44;2055808;70;20487;-72
2022/05/24 12:10:02;;;;;;;;;;;;;;;19.62;55.72;91954.94;2055806;70;20501;-68
2022/05/24 12:12:33;;;;;;;;;;;;;;;20.02;55.14;91966.25;2055875;70;20140;-69
2022/05/24 12:15:18;;;;;;;;;;;;;;;19.93;55.80;91967.53;2055788;70;20058;-71
2022/05/24 12:17:46;;;;;;;;;;;;;;;20.04;54.50;91966.25;2055791;70;20486;-69
2022/05/24 12:20:26;;;;;;;;;;;;;;;20.00;54.11;91962.63;2055489;70;20074;-71
2022/05/24 12:23:04;;;;;;;;;;;;;;;20.05;54.45;91973.41;2055749;69;20177;-69
2022/05/24 12:25:48;;;;;;;;;;;;;;;20.10;56.39;91977.03;2055830;70;20550;-70
2022/05/24 12:28:14;;;;;;;;;;;;;;;20.17;56.03;91972.88;2068613;69;20061;-68
2022/05/24 12:30:43;;;;;;;;;;;;;;;20.05;56.97;91978.41;2055491;70;20414;-69
2022/05/24 12:33:11;;;;;;;;;;;;;;;20.07;56.57;91972.72;2068290;69;20523;-71
2022/05/24 12:35:37;;;;;;;;;;;;;;;20.26;55.57;91974.41;2055538;70;20112;-71
2022/05/24 12:38:02;;;;;;;;;;;;;;;20.00;53.44;91969.06;2055596;70;20054;-72
2022/05/24 12:40:29;;;;;;;;;;;;;;;20.00;54.75;91969.06;2055629;69;20149;-72
2022/05/24 12:42:59;;;;;;;;;;;;;;;20.13;54.40;91964.25;2055611;70;20505;-71
2022/05/24 12:45:36;;;;;;;;;;;;;;;19.63;56.51;91975.63;2055457;70;20054;-72
2022/05/24 12:48:02;;;;;;;;;;;;;;;19.06;59.70;91972.53;2055481;70;20077;-73
2022/05/24 12:50:38;;;;;;;;;;;;;;;19.58;58.05;91974.81;2055634;70;20055;-69
2022/05/24 12:53:09;;;;;;;;;;;;;;;19.82;56.75;91985.91;2068597;69;20050;-69
2022/05/24 12:58:47;;;;;;;;;;;;;;;19.39;57.83;91993.06;2055536;69;20425;-72
2022/05/24 13:01:21;;;;;;;;;;;;;;;19.47;57.88;91984.63;2055488;69;20454;-71
2022/05/24 13:03:50;;;;;;;;;;;;;;;18.85;58.94;91982.13;2068539;69;20053;-71
2022/05/24 13:06:22;;;;;;;;;;;;;;;18.35;61.31;91997.50;2055386;70;20582;-72
2022/05/24 13:09:06;;;;;;;;;;;;;;;18.67;60.97;91994.59;2055411;69;20062;-70
2022/05/24 13:11:31;;;;;;;;;;;;;;;18.02;62.28;91993.97;2055498;69;20066;-70
2022/05/24 13:13:57;;;;;;;;;;;;;;;18.01;62.50;91989.66;2055770;69;20050;-70
2022/05/24 13:16:22;;;;;;;;;;;;;;;18.60;60.33;91987.34;2055372;70;20050;-71
2022/05/24 13:18:48;;;;;;;;;;;;;;;18.48;60.43;91984.94;2055410;70;20100;-70
2022/05/24 13:21:15;;;;;;;;;;;;;;;17.74;62.55;91976.25;2055499;70;20070;-70
2022/05/24 13:23:41;;;;;;;;;;;;;;;17.97;62.76;91981.03;2055457;70;20050;-70
2022/05/24 13:26:08;;;;;;;;;;;;;;;18.19;61.60;91977.22;2055478;69;20486;-70
2022/05/24 13:28:43;;;;;;;;;;;;;;;18.43;60.41;91972.03;2055519;70;20046;-70
2022/05/24 13:33:58;;;;;;;;;;;;;;;18.61;60.97;91982.34;2055484;69;20061;-70
2022/05/24 13:36:26;;;;;;;;;;;;;;;18.44;60.39;91992.69;2055714;70;20119;-70
2022/05/24 13:39:12;;;;;;;;;;;;;;;17.59;63.35;92009.28;2055729;69;20066;-71
2022/05/24 13:41:40;;;;;;;;;;;;;;;17.25;65.31;92046.88;2055668;69;20483;-71
2022/05/24 13:44:05;;;;;;;;;;;;;;;17.14;65.46;92027.41;2055645;70;20056;-72
2022/05/24 13:46:45;;;;;;;;;;;;;;;17.53;64.92;92032.66;2055574;70;20065;-74
2022/05/24 13:49:24;;;;;;;;;;;;;;;17.06;66.39;92033.59;2055640;70;20061;-70
2022/05/24 13:51:49;;;;;;;;;;;;;;;16.06;70.78;92058.44;2055939;70;20051;-73
2022/05/24 13:54:31;;;;;;;;;;;;;;;16.86;68.00;92064.31;2055625;70;20058;-71
2022/05/24 13:56:57;;;;;;;;;;;;;;;16.86;67.62;92072.84;2055694;70;20050;-71
2022/05/24 13:59:23;;;;;;;;;;;;;;;17.25;66.02;92081.00;2055919;70;20057;-72
2022/05/24 14:01:54;;;;;;;;;;;;;;;17.13;67.14;92080.69;2055699;70;20050;-70
2022/05/24 14:04:22;;;;;;;;;;;;;;;17.01;66.72;92081.09;2055491;70;20469;-72
2022/05/24 14:10:16;;;;;;;;;;;;;;;17.13;66.13;92086.38;2055720;69;20051;-73
2022/05/24 14:12:42;;;;;;;;;;;;;;;17.43;64.46;92077.94;2055764;70;20054;-73
2022/05/24 14:15:08;;;;;;;;;;;;;;;17.36;65.33;92076.31;2055652;69;20089;-73
2022/05/24 14:17:33;;;;;;;;;;;;;;;17.52;64.16;92071.03;2055723;69;20093;-70
2022/05/24 14:20:01;;;;;;;;;;;;;;;17.59;64.13;92082.56;2068687;69;20402;-70
2022/05/24 14:22:26;;;;;;;;;;;;;;;17.52;65.32;92090.25;2055632;69;20050;-70
2022/05/24 14:24:52;;;;;;;;;;;;;;;17.35;65.43;92116.81;2055603;70;20053;-71
2022/05/24 14:27:17;;;;;;;;;;;;;;;17.37;65.83;92111.19;2055641;70;20057;-70
2022/05/24 14:29:45;;;;;;;;;;;;;;;17.71;65.44;92105.66;2055611;70;20249;-70